20:00
Airports
Links
Donate
Help keep this website running!
PayPal
Bitcoin
METAR
KLGA 231951Z 05009KT 1SM R04/5500V6000FT -RA BR OVC005 03/02 A3043 RMK AO2 SFC VIS 1 1/2 SLP305 P0000 T00330017
Current Weather Conditions at KLGA
IFR 19:51:00 23-02-18
Automated station
Altimeter:30.43 hg
Temp:3.3°c 37°f
Dew point:1.7°c 34°f
Wind:9 knots, 10.4 mph, 5 m/s, from 50°
Visibility:1.0 statute miles
500(OVC) Overcast
Past METAR reports
IFR 19:26:00 23-02-18
Automated station
Altimeter:30.45 hg
Temp:3.3°c 37°f
Dew point:1.7°c 34°f
Wind:10 knots, 11.5 mph, 5 m/s, from 60°
Visibility:1.0 statute miles
500(OVC) Overcast
KLGA 231926Z 06010KT 1SM R04/6000VP6000FT -RA BR OVC005 03/02 A3045 RMK AO2 SFC VIS 1 1/2 PRESFR P0000 T00330017
IFR 19:23:00 23-02-18
Automated station
Altimeter:30.46 hg
Temp:3.3°c 37°f
Dew point:1.7°c 34°f
Wind:9 knots, 10.4 mph, 5 m/s, from 50°
Visibility:1.0 statute miles
600(OVC) Overcast
KLGA 231923Z 05009KT 1SM R04/5500VP6000FT -RA BR OVC006 03/02 A3046 RMK AO2 SFC VIS 1 1/2 P0000 T00330017
IFR 18:56:00 23-02-18
Automated station
Altimeter:30.47 hg
Temp:3.3°c 37°f
Dew point:1.7°c 34°f
Wind:9 knots, 10.4 mph, 5 m/s, from 40°
Visibility:2.0 statute miles
1100(OVC) Overcast
700(BKN) Broken
KLGA 231856Z 04009KT 2SM -RA BR BKN007 OVC011 03/02 A3047 RMK AO2 SFC VIS 3 P0000 T00330017
IFR 18:51:00 23-02-18
Automated station
Altimeter:30.47 hg
Temp:3.3°c 37°f
Dew point:1.7°c 34°f
Wind:10 knots, 11.5 mph, 5 m/s, from 40°
Visibility:2.0 statute miles
1100(OVC) Overcast
900(SCT) Scattered
500(SCT) Scattered
KLGA 231851Z 04010KT 2SM -RA BR SCT005 SCT009 OVC011 03/02 A3047 RMK AO2 SLP317 P0000 T00330017
IFR 18:46:00 23-02-18
Automated station
Altimeter:30.47 hg
Temp:4.0°c 39°f
Dew point:2.0°c 36°f
Wind:10 knots, 11.5 mph, 5 m/s, from 50°
Visibility:2.0 statute miles
1100(OVC) Overcast
900(SCT) Scattered
500(SCT) Scattered
KLGA 231846Z 05010KT 2SM -RA BR SCT005 SCT009 OVC011 04/02 A3047 RMK AO2 PRESFR P0000
IFR 18:35:00 23-02-18
Automated station
Altimeter:30.49 hg
Temp:2.8°c 36°f
Dew point:1.1°c 34°f
Wind:10 knots, 11.5 mph, 5 m/s, from 40°
Visibility:2.5 statute miles
1100(OVC) Overcast
900(SCT) Scattered
500(FEW) A few
KLGA 231835Z 04010KT 2 1/2SM -RA BR FEW005 SCT009 OVC011 03/01 A3049 RMK AO2 SFC VIS 3 P0000 T00280011
TAF
KLGA 231949Z 2320/2424 07008KT 3SM -RA BR BKN005 OVC013 TEMPO 2320/2323 1 1/2SM -RA BR BKN003 OVC013 FM232300 12005KT 3SM -RA BR OVC007 FM240200 22005KT 3SM -RA BR OVC005 WS020/27035KT FM240700 26006KT P6SM OVC010 FM241400 32007KT P6SM FEW020 OVC080 FM241800 36005KT P6SM OVC080
Forecast at KLGA
20:00 23-02-18 to 23:00 23-02-18
-RA BR
Wind:8 Knots from 70°
Visibility:3.0 statute miles
500BKN Broken
1300OVC Overcast
TEMPO 20:00 23-02-18 to 23:00 23-02-18
-RA BR
Visibility:1.5 statute miles
300BKN Broken
1300OVC Overcast
FM 23:00 23-02-18 to 02:00 24-02-18
-RA BR
Wind:5 Knots from 120°
Visibility:3.0 statute miles
700OVC Overcast
FM 02:00 24-02-18 to 07:00 24-02-18
-RA BR
Wind:5 Knots from 220°
Visibility:3.0 statute miles
500OVC Overcast
FM 07:00 24-02-18 to 14:00 24-02-18
Wind:6 Knots from 260°
Visibility:6.21 statute miles
1000OVC Overcast
FM 14:00 24-02-18 to 18:00 24-02-18
Wind:7 Knots from 320°
Visibility:6.21 statute miles
2000FEW A few
8000OVC Overcast
FM 18:00 24-02-18 to 00:00 25-02-18
Wind:5 Knots from 360°
Visibility:6.21 statute miles
8000OVC Overcast